sensor_id;sensor_type;location;lat;lon;timestamp;P1;durP1;ratioP1;P2;durP2;ratioP2
16665;SDS011;8446;50.998;6.250;2022-07-23T00:00:10;9.57;;;6.60;;
16665;SDS011;8446;50.998;6.250;2022-07-23T00:02:38;14.10;;;7.70;;
16665;SDS011;8446;50.998;6.250;2022-07-23T00:05:06;13.07;;;8.40;;
16665;SDS011;8446;50.998;6.250;2022-07-23T00:07:33;9.80;;;7.90;;
16665;SDS011;8446;50.998;6.250;2022-07-23T00:10:00;12.63;;;7.80;;
16665;SDS011;8446;50.998;6.250;2022-07-23T00:12:27;8.83;;;7.93;;
16665;SDS011;8446;50.998;6.250;2022-07-23T00:14:54;11.40;;;7.60;;
16665;SDS011;8446;50.998;6.250;2022-07-23T00:17:20;10.27;;;7.60;;
16665;SDS011;8446;50.998;6.250;2022-07-23T00:19:47;8.07;;;7.23;;
16665;SDS011;8446;50.998;6.250;2022-07-23T00:22:15;12.20;;;8.93;;
16665;SDS011;8446;50.998;6.250;2022-07-23T00:24:42;11.40;;;8.10;;
16665;SDS011;8446;50.998;6.250;2022-07-23T00:27:09;9.83;;;7.60;;
16665;SDS011;8446;50.998;6.250;2022-07-23T00:29:36;13.40;;;7.63;;
16665;SDS011;8446;50.998;6.250;2022-07-23T00:32:03;11.73;;;7.90;;
16665;SDS011;8446;50.998;6.250;2022-07-23T00:34:30;17.10;;;8.93;;
16665;SDS011;8446;50.998;6.250;2022-07-23T00:36:57;10.07;;;8.17;;
16665;SDS011;8446;50.998;6.250;2022-07-23T00:39:25;16.57;;;8.63;;
16665;SDS011;8446;50.998;6.250;2022-07-23T00:41:52;13.80;;;8.70;;
16665;SDS011;8446;50.998;6.250;2022-07-23T00:44:20;10.80;;;7.17;;
16665;SDS011;8446;50.998;6.250;2022-07-23T00:46:48;18.67;;;7.97;;
16665;SDS011;8446;50.998;6.250;2022-07-23T00:49:18;12.30;;;9.13;;
16665;SDS011;8446;50.998;6.250;2022-07-23T00:51:46;14.53;;;9.77;;
16665;SDS011;8446;50.998;6.250;2022-07-23T00:54:13;12.20;;;8.57;;
16665;SDS011;8446;50.998;6.250;2022-07-23T00:56:42;13.23;;;8.00;;
16665;SDS011;8446;50.998;6.250;2022-07-23T00:59:10;13.03;;;8.07;;
16665;SDS011;8446;50.998;6.250;2022-07-23T01:01:37;14.63;;;7.97;;
16665;SDS011;8446;50.998;6.250;2022-07-23T01:04:05;10.40;;;7.60;;
16665;SDS011;8446;50.998;6.250;2022-07-23T01:06:33;18.13;;;9.17;;
16665;SDS011;8446;50.998;6.250;2022-07-23T01:09:01;13.90;;;8.60;;
16665;SDS011;8446;50.998;6.250;2022-07-23T01:11:29;14.40;;;9.90;;
16665;SDS011;8446;50.998;6.250;2022-07-23T01:13:58;12.63;;;8.87;;
16665;SDS011;8446;50.998;6.250;2022-07-23T01:16:25;15.30;;;8.63;;
16665;SDS011;8446;50.998;6.250;2022-07-23T01:18:52;17.27;;;8.53;;
16665;SDS011;8446;50.998;6.250;2022-07-23T01:21:19;14.30;;;7.63;;
16665;SDS011;8446;50.998;6.250;2022-07-23T01:23:47;18.87;;;8.57;;
16665;SDS011;8446;50.998;6.250;2022-07-23T01:26:14;15.00;;;8.43;;
16665;SDS011;8446;50.998;6.250;2022-07-23T01:28:42;14.70;;;8.53;;
16665;SDS011;8446;50.998;6.250;2022-07-23T01:31:09;11.40;;;7.77;;
16665;SDS011;8446;50.998;6.250;2022-07-23T01:33:35;17.80;;;9.50;;
16665;SDS011;8446;50.998;6.250;2022-07-23T01:36:02;11.40;;;8.70;;
16665;SDS011;8446;50.998;6.250;2022-07-23T01:38:29;20.03;;;9.70;;
16665;SDS011;8446;50.998;6.250;2022-07-23T01:40:58;15.03;;;9.90;;
16665;SDS011;8446;50.998;6.250;2022-07-23T01:43:24;16.30;;;9.67;;
16665;SDS011;8446;50.998;6.250;2022-07-23T01:45:51;19.23;;;10.50;;
16665;SDS011;8446;50.998;6.250;2022-07-23T01:48:18;20.93;;;9.07;;
16665;SDS011;8446;50.998;6.250;2022-07-23T01:50:45;16.40;;;8.17;;
16665;SDS011;8446;50.998;6.250;2022-07-23T01:53:12;17.77;;;9.73;;
16665;SDS011;8446;50.998;6.250;2022-07-23T01:55:39;17.40;;;9.07;;
16665;SDS011;8446;50.998;6.250;2022-07-23T01:58:07;13.30;;;8.77;;
16665;SDS011;8446;50.998;6.250;2022-07-23T02:00:34;14.23;;;8.37;;
16665;SDS011;8446;50.998;6.250;2022-07-23T02:03:01;14.73;;;9.30;;
16665;SDS011;8446;50.998;6.250;2022-07-23T02:05:28;18.50;;;8.60;;
16665;SDS011;8446;50.998;6.250;2022-07-23T02:07:55;15.93;;;8.27;;
16665;SDS011;8446;50.998;6.250;2022-07-23T02:10:22;14.37;;;8.40;;
16665;SDS011;8446;50.998;6.250;2022-07-23T02:12:48;14.40;;;8.27;;
16665;SDS011;8446;50.998;6.250;2022-07-23T02:15:17;13.13;;;8.03;;
16665;SDS011;8446;50.998;6.250;2022-07-23T02:17:44;19.33;;;9.13;;
16665;SDS011;8446;50.998;6.250;2022-07-23T02:20:11;10.53;;;7.83;;
16665;SDS011;8446;50.998;6.250;2022-07-23T02:22:38;14.90;;;9.60;;
16665;SDS011;8446;50.998;6.250;2022-07-23T02:25:06;16.30;;;8.60;;
16665;SDS011;8446;50.998;6.250;2022-07-23T02:27:34;16.60;;;9.33;;
16665;SDS011;8446;50.998;6.250;2022-07-23T02:30:02;18.10;;;10.30;;
16665;SDS011;8446;50.998;6.250;2022-07-23T02:32:31;20.23;;;10.27;;
16665;SDS011;8446;50.998;6.250;2022-07-23T02:34:58;17.33;;;9.80;;
16665;SDS011;8446;50.998;6.250;2022-07-23T02:37:25;15.93;;;11.20;;
16665;SDS011;8446;50.998;6.250;2022-07-23T02:39:52;18.20;;;10.13;;
16665;SDS011;8446;50.998;6.250;2022-07-23T02:42:19;24.07;;;9.83;;
16665;SDS011;8446;50.998;6.250;2022-07-23T02:44:46;15.70;;;9.07;;
16665;SDS011;8446;50.998;6.250;2022-07-23T02:47:13;21.87;;;9.50;;
16665;SDS011;8446;50.998;6.250;2022-07-23T02:49:41;15.73;;;9.10;;
16665;SDS011;8446;50.998;6.250;2022-07-23T02:52:07;11.00;;;8.20;;
16665;SDS011;8446;50.998;6.250;2022-07-23T02:54:35;10.27;;;7.87;;
16665;SDS011;8446;50.998;6.250;2022-07-23T02:57:02;15.97;;;9.20;;
16665;SDS011;8446;50.998;6.250;2022-07-23T02:59:29;14.37;;;8.80;;
16665;SDS011;8446;50.998;6.250;2022-07-23T03:01:56;11.13;;;7.80;;
16665;SDS011;8446;50.998;6.250;2022-07-23T03:04:22;11.30;;;8.70;;
16665;SDS011;8446;50.998;6.250;2022-07-23T03:06:51;13.07;;;8.40;;
16665;SDS011;8446;50.998;6.250;2022-07-23T03:09:18;10.40;;;8.40;;
16665;SDS011;8446;50.998;6.250;2022-07-23T03:11:44;13.50;;;8.20;;
16665;SDS011;8446;50.998;6.250;2022-07-23T03:14:11;9.47;;;8.33;;
16665;SDS011;8446;50.998;6.250;2022-07-23T03:16:38;15.17;;;8.53;;
16665;SDS011;8446;50.998;6.250;2022-07-23T03:19:06;15.13;;;7.60;;
16665;SDS011;8446;50.998;6.250;2022-07-23T03:21:33;11.50;;;7.67;;
16665;SDS011;8446;50.998;6.250;2022-07-23T03:24:05;9.97;;;7.77;;
16665;SDS011;8446;50.998;6.250;2022-07-23T03:26:33;13.67;;;8.20;;
16665;SDS011;8446;50.998;6.250;2022-07-23T03:28:59;19.23;;;8.90;;
16665;SDS011;8446;50.998;6.250;2022-07-23T03:31:28;10.47;;;7.80;;
16665;SDS011;8446;50.998;6.250;2022-07-23T03:33:55;16.37;;;9.20;;
16665;SDS011;8446;50.998;6.250;2022-07-23T03:36:22;8.23;;;7.30;;
16665;SDS011;8446;50.998;6.250;2022-07-23T03:38:48;9.83;;;7.57;;
16665;SDS011;8446;50.998;6.250;2022-07-23T03:41:17;10.80;;;7.83;;
16665;SDS011;8446;50.998;6.250;2022-07-23T03:43:44;11.53;;;7.30;;
16665;SDS011;8446;50.998;6.250;2022-07-23T03:46:11;10.27;;;8.20;;
16665;SDS011;8446;50.998;6.250;2022-07-23T03:48:38;15.50;;;7.90;;
16665;SDS011;8446;50.998;6.250;2022-07-23T03:51:05;12.27;;;8.50;;
16665;SDS011;8446;50.998;6.250;2022-07-23T03:53:32;13.40;;;7.87;;
16665;SDS011;8446;50.998;6.250;2022-07-23T03:55:59;8.77;;;7.03;;
16665;SDS011;8446;50.998;6.250;2022-07-23T03:58:27;10.63;;;7.57;;
16665;SDS011;8446;50.998;6.250;2022-07-23T04:00:54;12.50;;;8.10;;
16665;SDS011;8446;50.998;6.250;2022-07-23T04:03:21;10.10;;;8.80;;
16665;SDS011;8446;50.998;6.250;2022-07-23T04:05:48;9.83;;;7.30;;
16665;SDS011;8446;50.998;6.250;2022-07-23T04:08:14;10.20;;;7.40;;
16665;SDS011;8446;50.998;6.250;2022-07-23T04:10:41;16.40;;;8.87;;
16665;SDS011;8446;50.998;6.250;2022-07-23T04:13:08;13.80;;;9.67;;
16665;SDS011;8446;50.998;6.250;2022-07-23T04:15:36;11.67;;;8.13;;
16665;SDS011;8446;50.998;6.250;2022-07-23T04:18:03;12.33;;;7.97;;
16665;SDS011;8446;50.998;6.250;2022-07-23T04:20:30;17.27;;;8.00;;
16665;SDS011;8446;50.998;6.250;2022-07-23T04:22:57;9.43;;;8.00;;
16665;SDS011;8446;50.998;6.250;2022-07-23T04:25:24;10.40;;;8.30;;
16665;SDS011;8446;50.998;6.250;2022-07-23T04:27:50;11.80;;;8.00;;
16665;SDS011;8446;50.998;6.250;2022-07-23T04:30:17;11.63;;;7.23;;
16665;SDS011;8446;50.998;6.250;2022-07-23T04:32:46;20.13;;;8.80;;
16665;SDS011;8446;50.998;6.250;2022-07-23T04:35:12;15.50;;;8.03;;
16665;SDS011;8446;50.998;6.250;2022-07-23T04:37:39;12.27;;;7.63;;
16665;SDS011;8446;50.998;6.250;2022-07-23T04:40:06;8.60;;;7.20;;
16665;SDS011;8446;50.998;6.250;2022-07-23T04:42:34;9.30;;;7.43;;
16665;SDS011;8446;50.998;6.250;2022-07-23T04:45:01;9.20;;;6.80;;
16665;SDS011;8446;50.998;6.250;2022-07-23T04:47:28;9.60;;;7.10;;
16665;SDS011;8446;50.998;6.250;2022-07-23T04:49:57;8.50;;;6.37;;
16665;SDS011;8446;50.998;6.250;2022-07-23T04:52:23;10.33;;;7.60;;
16665;SDS011;8446;50.998;6.250;2022-07-23T04:54:50;10.43;;;7.40;;
16665;SDS011;8446;50.998;6.250;2022-07-23T04:57:17;10.07;;;7.37;;
16665;SDS011;8446;50.998;6.250;2022-07-23T04:59:44;13.50;;;8.63;;
16665;SDS011;8446;50.998;6.250;2022-07-23T05:02:11;12.67;;;8.47;;
16665;SDS011;8446;50.998;6.250;2022-07-23T05:04:37;13.07;;;9.23;;
16665;SDS011;8446;50.998;6.250;2022-07-23T05:07:06;17.77;;;10.77;;
16665;SDS011;8446;50.998;6.250;2022-07-23T05:09:33;18.67;;;11.70;;
16665;SDS011;8446;50.998;6.250;2022-07-23T05:11:59;14.90;;;10.27;;
16665;SDS011;8446;50.998;6.250;2022-07-23T05:14:26;20.13;;;11.87;;
16665;SDS011;8446;50.998;6.250;2022-07-23T05:16:53;18.53;;;10.60;;
16665;SDS011;8446;50.998;6.250;2022-07-23T05:19:21;17.67;;;10.70;;
16665;SDS011;8446;50.998;6.250;2022-07-23T05:21:48;17.10;;;12.23;;
16665;SDS011;8446;50.998;6.250;2022-07-23T05:24:16;21.57;;;9.90;;
16665;SDS011;8446;50.998;6.250;2022-07-23T05:26:43;15.20;;;10.50;;
16665;SDS011;8446;50.998;6.250;2022-07-23T05:29:09;17.50;;;11.07;;
16665;SDS011;8446;50.998;6.250;2022-07-23T05:31:36;19.80;;;12.10;;
16665;SDS011;8446;50.998;6.250;2022-07-23T05:34:03;20.60;;;10.63;;
16665;SDS011;8446;50.998;6.250;2022-07-23T05:36:30;26.57;;;12.80;;
16665;SDS011;8446;50.998;6.250;2022-07-23T05:38:57;24.50;;;12.57;;
16665;SDS011;8446;50.998;6.250;2022-07-23T05:41:26;27.33;;;13.53;;
16665;SDS011;8446;50.998;6.250;2022-07-23T05:43:52;21.70;;;13.50;;
16665;SDS011;8446;50.998;6.250;2022-07-23T05:46:19;27.40;;;14.83;;
16665;SDS011;8446;50.998;6.250;2022-07-23T05:48:46;25.27;;;14.53;;
16665;SDS011;8446;50.998;6.250;2022-07-23T05:51:18;25.70;;;14.70;;
16665;SDS011;8446;50.998;6.250;2022-07-23T05:53:45;24.63;;;14.27;;
16665;SDS011;8446;50.998;6.250;2022-07-23T05:56:12;24.40;;;14.23;;
16665;SDS011;8446;50.998;6.250;2022-07-23T05:58:40;24.07;;;14.13;;
16665;SDS011;8446;50.998;6.250;2022-07-23T06:01:07;30.00;;;13.23;;
16665;SDS011;8446;50.998;6.250;2022-07-23T06:03:34;25.37;;;15.50;;
16665;SDS011;8446;50.998;6.250;2022-07-23T06:06:01;31.33;;;16.10;;
16665;SDS011;8446;50.998;6.250;2022-07-23T06:08:28;25.97;;;14.77;;
16665;SDS011;8446;50.998;6.250;2022-07-23T06:10:55;27.90;;;15.70;;
16665;SDS011;8446;50.998;6.250;2022-07-23T06:13:22;22.77;;;15.50;;
16665;SDS011;8446;50.998;6.250;2022-07-23T06:15:50;27.17;;;15.30;;
16665;SDS011;8446;50.998;6.250;2022-07-23T06:18:17;37.97;;;15.30;;
16665;SDS011;8446;50.998;6.250;2022-07-23T06:20:43;22.57;;;15.53;;
16665;SDS011;8446;50.998;6.250;2022-07-23T06:23:10;26.20;;;14.97;;
16665;SDS011;8446;50.998;6.250;2022-07-23T06:25:37;33.10;;;15.60;;
16665;SDS011;8446;50.998;6.250;2022-07-23T06:28:04;27.60;;;15.00;;
16665;SDS011;8446;50.998;6.250;2022-07-23T06:30:31;26.50;;;14.67;;
16665;SDS011;8446;50.998;6.250;2022-07-23T06:32:59;29.63;;;16.10;;
16665;SDS011;8446;50.998;6.250;2022-07-23T06:35:25;25.40;;;16.27;;
16665;SDS011;8446;50.998;6.250;2022-07-23T06:37:52;28.57;;;17.37;;
16665;SDS011;8446;50.998;6.250;2022-07-23T06:40:19;25.53;;;16.40;;
16665;SDS011;8446;50.998;6.250;2022-07-23T06:42:46;24.20;;;15.67;;
16665;SDS011;8446;50.998;6.250;2022-07-23T06:45:13;24.03;;;16.90;;
16665;SDS011;8446;50.998;6.250;2022-07-23T06:47:40;24.97;;;16.40;;
16665;SDS011;8446;50.998;6.250;2022-07-23T06:50:08;24.73;;;16.47;;
16665;SDS011;8446;50.998;6.250;2022-07-23T06:52:35;24.50;;;15.60;;
16665;SDS011;8446;50.998;6.250;2022-07-23T06:55:02;27.50;;;17.40;;
16665;SDS011;8446;50.998;6.250;2022-07-23T06:57:30;30.40;;;15.47;;
16665;SDS011;8446;50.998;6.250;2022-07-23T06:59:57;20.53;;;15.30;;
16665;SDS011;8446;50.998;6.250;2022-07-23T07:02:23;22.77;;;15.27;;
16665;SDS011;8446;50.998;6.250;2022-07-23T07:04:50;28.90;;;17.00;;
16665;SDS011;8446;50.998;6.250;2022-07-23T07:07:19;23.07;;;14.40;;
16665;SDS011;8446;50.998;6.250;2022-07-23T07:09:46;27.70;;;15.47;;
16665;SDS011;8446;50.998;6.250;2022-07-23T07:12:12;24.40;;;16.37;;
16665;SDS011;8446;50.998;6.250;2022-07-23T07:14:39;26.90;;;14.27;;
16665;SDS011;8446;50.998;6.250;2022-07-23T07:17:06;22.37;;;14.20;;
16665;SDS011;8446;50.998;6.250;2022-07-23T07:19:33;23.87;;;14.60;;
16665;SDS011;8446;50.998;6.250;2022-07-23T07:21:59;21.37;;;15.20;;
16665;SDS011;8446;50.998;6.250;2022-07-23T07:24:27;21.10;;;14.00;;
16665;SDS011;8446;50.998;6.250;2022-07-23T07:26:54;22.53;;;13.00;;
16665;SDS011;8446;50.998;6.250;2022-07-23T07:29:21;25.20;;;14.70;;
16665;SDS011;8446;50.998;6.250;2022-07-23T07:31:48;20.83;;;14.47;;
16665;SDS011;8446;50.998;6.250;2022-07-23T07:34:14;23.60;;;14.07;;
16665;SDS011;8446;50.998;6.250;2022-07-23T07:36:41;19.97;;;12.63;;
16665;SDS011;8446;50.998;6.250;2022-07-23T07:39:08;26.17;;;14.17;;
16665;SDS011;8446;50.998;6.250;2022-07-23T07:41:36;16.33;;;11.70;;
16665;SDS011;8446;50.998;6.250;2022-07-23T07:44:03;21.30;;;13.20;;
16665;SDS011;8446;50.998;6.250;2022-07-23T07:46:30;20.23;;;13.60;;
16665;SDS011;8446;50.998;6.250;2022-07-23T07:48:57;27.23;;;15.17;;
16665;SDS011;8446;50.998;6.250;2022-07-23T07:51:24;21.07;;;14.03;;
16665;SDS011;8446;50.998;6.250;2022-07-23T07:53:52;18.17;;;12.17;;
16665;SDS011;8446;50.998;6.250;2022-07-23T07:56:19;26.10;;;15.87;;
16665;SDS011;8446;50.998;6.250;2022-07-23T07:58:47;22.03;;;13.17;;
16665;SDS011;8446;50.998;6.250;2022-07-23T08:01:14;23.60;;;12.93;;
16665;SDS011;8446;50.998;6.250;2022-07-23T08:03:42;28.07;;;15.13;;
16665;SDS011;8446;50.998;6.250;2022-07-23T08:06:08;21.43;;;12.90;;
16665;SDS011;8446;50.998;6.250;2022-07-23T08:08:35;21.40;;;13.63;;
16665;SDS011;8446;50.998;6.250;2022-07-23T08:11:02;21.40;;;13.43;;
16665;SDS011;8446;50.998;6.250;2022-07-23T08:13:29;20.47;;;13.60;;
16665;SDS011;8446;50.998;6.250;2022-07-23T08:15:57;21.30;;;13.27;;
16665;SDS011;8446;50.998;6.250;2022-07-23T08:18:24;18.93;;;12.00;;
16665;SDS011;8446;50.998;6.250;2022-07-23T08:20:51;18.97;;;13.10;;
16665;SDS011;8446;50.998;6.250;2022-07-23T08:23:17;19.60;;;13.13;;
16665;SDS011;8446;50.998;6.250;2022-07-23T08:25:44;20.53;;;13.57;;
16665;SDS011;8446;50.998;6.250;2022-07-23T08:28:13;17.93;;;12.73;;
16665;SDS011;8446;50.998;6.250;2022-07-23T08:30:41;28.10;;;13.13;;
16665;SDS011;8446;50.998;6.250;2022-07-23T08:33:12;26.27;;;12.97;;
16665;SDS011;8446;50.998;6.250;2022-07-23T08:35:40;19.80;;;12.20;;
16665;SDS011;8446;50.998;6.250;2022-07-23T08:38:09;18.83;;;13.40;;
16665;SDS011;8446;50.998;6.250;2022-07-23T08:40:37;22.70;;;13.60;;
16665;SDS011;8446;50.998;6.250;2022-07-23T08:43:06;20.50;;;13.57;;
16665;SDS011;8446;50.998;6.250;2022-07-23T08:45:35;17.33;;;11.30;;
16665;SDS011;8446;50.998;6.250;2022-07-23T08:48:03;16.23;;;11.03;;
16665;SDS011;8446;50.998;6.250;2022-07-23T08:50:33;24.30;;;12.40;;
16665;SDS011;8446;50.998;6.250;2022-07-23T08:53:02;23.27;;;12.30;;
16665;SDS011;8446;50.998;6.250;2022-07-23T08:55:32;17.87;;;13.40;;
16665;SDS011;8446;50.998;6.250;2022-07-23T08:57:59;22.17;;;13.20;;
16665;SDS011;8446;50.998;6.250;2022-07-23T09:00:26;16.03;;;12.33;;
16665;SDS011;8446;50.998;6.250;2022-07-23T09:02:53;28.90;;;13.17;;
16665;SDS011;8446;50.998;6.250;2022-07-23T09:05:20;19.80;;;12.50;;
16665;SDS011;8446;50.998;6.250;2022-07-23T09:08:04;18.13;;;12.00;;
16665;SDS011;8446;50.998;6.250;2022-07-23T09:10:42;23.07;;;12.60;;
16665;SDS011;8446;50.998;6.250;2022-07-23T09:13:22;18.33;;;10.63;;
16665;SDS011;8446;50.998;6.250;2022-07-23T09:15:51;17.13;;;11.43;;
16665;SDS011;8446;50.998;6.250;2022-07-23T09:18:19;16.77;;;11.23;;
16665;SDS011;8446;50.998;6.250;2022-07-23T09:20:56;17.03;;;12.03;;
16665;SDS011;8446;50.998;6.250;2022-07-23T09:23:37;17.13;;;9.70;;
16665;SDS011;8446;50.998;6.250;2022-07-23T09:26:13;14.60;;;9.83;;
16665;SDS011;8446;50.998;6.250;2022-07-23T09:28:49;15.87;;;10.10;;
16665;SDS011;8446;50.998;6.250;2022-07-23T09:31:18;15.60;;;10.67;;
16665;SDS011;8446;50.998;6.250;2022-07-23T09:33:45;14.13;;;8.80;;
16665;SDS011;8446;50.998;6.250;2022-07-23T09:36:12;11.23;;;8.40;;
16665;SDS011;8446;50.998;6.250;2022-07-23T09:38:48;12.40;;;9.43;;
16665;SDS011;8446;50.998;6.250;2022-07-23T09:41:16;10.87;;;8.60;;
16665;SDS011;8446;50.998;6.250;2022-07-23T09:43:43;12.23;;;8.50;;
16665;SDS011;8446;50.998;6.250;2022-07-23T09:46:17;12.77;;;8.40;;
16665;SDS011;8446;50.998;6.250;2022-07-23T09:48:45;12.50;;;9.10;;
16665;SDS011;8446;50.998;6.250;2022-07-23T09:51:12;15.20;;;8.10;;
16665;SDS011;8446;50.998;6.250;2022-07-23T09:53:39;10.97;;;8.00;;
16665;SDS011;8446;50.998;6.250;2022-07-23T09:56:07;11.50;;;8.33;;
16665;SDS011;8446;50.998;6.250;2022-07-23T09:58:35;13.80;;;8.13;;
16665;SDS011;8446;50.998;6.250;2022-07-23T10:01:10;15.00;;;7.40;;
16665;SDS011;8446;50.998;6.250;2022-07-23T10:03:39;8.70;;;5.93;;
16665;SDS011;8446;50.998;6.250;2022-07-23T10:06:07;8.87;;;6.33;;
16665;SDS011;8446;50.998;6.250;2022-07-23T10:08:35;10.37;;;7.20;;
16665;SDS011;8446;50.998;6.250;2022-07-23T10:11:06;9.20;;;6.40;;
16665;SDS011;8446;50.998;6.250;2022-07-23T10:13:35;8.70;;;6.63;;
16665;SDS011;8446;50.998;6.250;2022-07-23T10:16:15;9.30;;;7.60;;
16665;SDS011;8446;50.998;6.250;2022-07-23T10:18:42;11.17;;;7.20;;
16665;SDS011;8446;50.998;6.250;2022-07-23T10:21:09;10.47;;;6.30;;
16665;SDS011;8446;50.998;6.250;2022-07-23T10:23:37;7.40;;;5.50;;
16665;SDS011;8446;50.998;6.250;2022-07-23T10:26:16;8.33;;;6.97;;
16665;SDS011;8446;50.998;6.250;2022-07-23T10:28:59;9.83;;;5.40;;
16665;SDS011;8446;50.998;6.250;2022-07-23T10:31:35;7.33;;;6.10;;
16665;SDS011;8446;50.998;6.250;2022-07-23T10:34:12;8.07;;;5.97;;
16665;SDS011;8446;50.998;6.250;2022-07-23T10:36:44;10.03;;;5.73;;
16665;SDS011;8446;50.998;6.250;2022-07-23T10:39:17;8.83;;;6.47;;
16665;SDS011;8446;50.998;6.250;2022-07-23T10:41:50;8.70;;;5.83;;
16665;SDS011;8446;50.998;6.250;2022-07-23T10:44:17;8.00;;;5.27;;
16665;SDS011;8446;50.998;6.250;2022-07-23T10:46:56;5.33;;;4.20;;
16665;SDS011;8446;50.998;6.250;2022-07-23T10:49:36;6.87;;;4.50;;
16665;SDS011;8446;50.998;6.250;2022-07-23T10:58:00;6.33;;;5.00;;
16665;SDS011;8446;50.998;6.250;2022-07-23T11:00:27;9.60;;;4.50;;
16665;SDS011;8446;50.998;6.250;2022-07-23T11:02:55;6.43;;;5.13;;
16665;SDS011;8446;50.998;6.250;2022-07-23T11:05:24;9.00;;;4.73;;
16665;SDS011;8446;50.998;6.250;2022-07-23T11:10:40;4.10;;;3.60;;
16665;SDS011;8446;50.998;6.250;2022-07-23T11:16:13;4.13;;;3.70;;
16665;SDS011;8446;50.998;6.250;2022-07-23T11:21:40;5.20;;;4.70;;
16665;SDS011;8446;50.998;6.250;2022-07-23T11:24:11;5.13;;;3.43;;
16665;SDS011;8446;50.998;6.250;2022-07-23T11:26:43;6.13;;;4.37;;
16665;SDS011;8446;50.998;6.250;2022-07-23T11:32:14;4.10;;;3.10;;
16665;SDS011;8446;50.998;6.250;2022-07-23T11:34:45;4.20;;;3.30;;
16665;SDS011;8446;50.998;6.250;2022-07-23T11:37:26;4.87;;;3.50;;
16665;SDS011;8446;50.998;6.250;2022-07-23T11:40:05;7.30;;;3.53;;
16665;SDS011;8446;50.998;6.250;2022-07-23T11:42:34;4.10;;;3.70;;
16665;SDS011;8446;50.998;6.250;2022-07-23T11:45:03;4.33;;;3.30;;
16665;SDS011;8446;50.998;6.250;2022-07-23T11:47:32;5.10;;;2.90;;
16665;SDS011;8446;50.998;6.250;2022-07-23T11:49:59;6.33;;;3.50;;
16665;SDS011;8446;50.998;6.250;2022-07-23T11:52:27;3.60;;;3.10;;
16665;SDS011;8446;50.998;6.250;2022-07-23T11:54:55;4.33;;;2.60;;
16665;SDS011;8446;50.998;6.250;2022-07-23T11:57:24;7.70;;;2.57;;
16665;SDS011;8446;50.998;6.250;2022-07-23T12:00:01;3.80;;;3.00;;
16665;SDS011;8446;50.998;6.250;2022-07-23T12:02:32;5.87;;;3.13;;
16665;SDS011;8446;50.998;6.250;2022-07-23T12:04:59;3.00;;;2.80;;
16665;SDS011;8446;50.998;6.250;2022-07-23T12:07:26;2.60;;;2.40;;
16665;SDS011;8446;50.998;6.250;2022-07-23T12:09:55;6.43;;;2.80;;
16665;SDS011;8446;50.998;6.250;2022-07-23T12:12:23;4.27;;;2.47;;
16665;SDS011;8446;50.998;6.250;2022-07-23T12:14:51;5.00;;;3.10;;
16665;SDS011;8446;50.998;6.250;2022-07-23T12:17:20;5.87;;;2.80;;
16665;SDS011;8446;50.998;6.250;2022-07-23T12:19:48;5.77;;;3.30;;
16665;SDS011;8446;50.998;6.250;2022-07-23T12:22:15;5.33;;;2.60;;
16665;SDS011;8446;50.998;6.250;2022-07-23T12:24:55;3.30;;;2.67;;
16665;SDS011;8446;50.998;6.250;2022-07-23T12:27:23;2.80;;;2.37;;
16665;SDS011;8446;50.998;6.250;2022-07-23T12:29:50;2.90;;;2.70;;
16665;SDS011;8446;50.998;6.250;2022-07-23T12:32:21;3.83;;;1.93;;
16665;SDS011;8446;50.998;6.250;2022-07-23T12:34:51;2.30;;;1.73;;
16665;SDS011;8446;50.998;6.250;2022-07-23T12:37:30;2.50;;;2.07;;
16665;SDS011;8446;50.998;6.250;2022-07-23T12:39:57;2.80;;;2.17;;
16665;SDS011;8446;50.998;6.250;2022-07-23T12:42:24;2.07;;;1.70;;
16665;SDS011;8446;50.998;6.250;2022-07-23T12:47:53;5.07;;;1.77;;
16665;SDS011;8446;50.998;6.250;2022-07-23T12:50:34;2.20;;;2.10;;
16665;SDS011;8446;50.998;6.250;2022-07-23T12:53:14;1.93;;;1.83;;
16665;SDS011;8446;50.998;6.250;2022-07-23T12:55:43;2.60;;;1.83;;
16665;SDS011;8446;50.998;6.250;2022-07-23T12:58:11;2.10;;;1.90;;
16665;SDS011;8446;50.998;6.250;2022-07-23T13:00:51;1.90;;;1.80;;
16665;SDS011;8446;50.998;6.250;2022-07-23T13:03:23;3.30;;;2.07;;
16665;SDS011;8446;50.998;6.250;2022-07-23T13:05:53;7.23;;;1.90;;
16665;SDS011;8446;50.998;6.250;2022-07-23T13:08:21;2.07;;;1.87;;
16665;SDS011;8446;50.998;6.250;2022-07-23T13:10:49;3.10;;;2.23;;
16665;SDS011;8446;50.998;6.250;2022-07-23T13:13:17;2.33;;;2.10;;
16665;SDS011;8446;50.998;6.250;2022-07-23T13:15:46;2.70;;;1.83;;
16665;SDS011;8446;50.998;6.250;2022-07-23T13:18:14;2.40;;;2.00;;
16665;SDS011;8446;50.998;6.250;2022-07-23T13:20:42;2.90;;;1.90;;
16665;SDS011;8446;50.998;6.250;2022-07-23T13:23:11;2.17;;;1.97;;
16665;SDS011;8446;50.998;6.250;2022-07-23T13:25:38;4.10;;;1.90;;
16665;SDS011;8446;50.998;6.250;2022-07-23T13:28:04;5.33;;;1.97;;
16665;SDS011;8446;50.998;6.250;2022-07-23T13:30:31;6.30;;;2.10;;
16665;SDS011;8446;50.998;6.250;2022-07-23T13:32:58;5.90;;;1.80;;
16665;SDS011;8446;50.998;6.250;2022-07-23T13:35:25;1.60;;;1.47;;
16665;SDS011;8446;50.998;6.250;2022-07-23T13:37:52;2.30;;;2.10;;
16665;SDS011;8446;50.998;6.250;2022-07-23T13:40:20;3.80;;;2.20;;
16665;SDS011;8446;50.998;6.250;2022-07-23T13:42:47;2.30;;;1.83;;
16665;SDS011;8446;50.998;6.250;2022-07-23T13:45:14;2.33;;;1.90;;
16665;SDS011;8446;50.998;6.250;2022-07-23T13:47:41;3.10;;;2.30;;
16665;SDS011;8446;50.998;6.250;2022-07-23T13:50:08;5.47;;;1.97;;
16665;SDS011;8446;50.998;6.250;2022-07-23T13:52:35;1.97;;;1.80;;
16665;SDS011;8446;50.998;6.250;2022-07-23T13:55:02;1.97;;;1.80;;
16665;SDS011;8446;50.998;6.250;2022-07-23T13:57:32;3.37;;;1.93;;
16665;SDS011;8446;50.998;6.250;2022-07-23T13:59:59;3.00;;;2.07;;
16665;SDS011;8446;50.998;6.250;2022-07-23T14:02:26;1.60;;;1.50;;
16665;SDS011;8446;50.998;6.250;2022-07-23T14:04:55;1.73;;;1.63;;
16665;SDS011;8446;50.998;6.250;2022-07-23T14:07:22;2.20;;;2.00;;
16665;SDS011;8446;50.998;6.250;2022-07-23T14:09:49;2.60;;;1.67;;
16665;SDS011;8446;50.998;6.250;2022-07-23T14:12:16;2.70;;;1.90;;
16665;SDS011;8446;50.998;6.250;2022-07-23T14:14:44;1.70;;;1.60;;
16665;SDS011;8446;50.998;6.250;2022-07-23T14:17:11;7.07;;;1.87;;
16665;SDS011;8446;50.998;6.250;2022-07-23T14:19:37;2.20;;;2.03;;
16665;SDS011;8446;50.998;6.250;2022-07-23T14:22:04;2.53;;;1.90;;
16665;SDS011;8446;50.998;6.250;2022-07-23T14:24:32;2.20;;;1.77;;
16665;SDS011;8446;50.998;6.250;2022-07-23T14:26:59;2.00;;;1.80;;
16665;SDS011;8446;50.998;6.250;2022-07-23T14:29:27;4.40;;;2.00;;
16665;SDS011;8446;50.998;6.250;2022-07-23T14:31:56;2.50;;;2.07;;
16665;SDS011;8446;50.998;6.250;2022-07-23T14:34:23;2.23;;;2.00;;
16665;SDS011;8446;50.998;6.250;2022-07-23T14:36:50;2.27;;;2.07;;
16665;SDS011;8446;50.998;6.250;2022-07-23T14:39:17;5.20;;;2.00;;
16665;SDS011;8446;50.998;6.250;2022-07-23T14:41:44;3.10;;;2.40;;
16665;SDS011;8446;50.998;6.250;2022-07-23T14:44:11;2.80;;;2.00;;
16665;SDS011;8446;50.998;6.250;2022-07-23T14:46:38;2.20;;;2.00;;
16665;SDS011;8446;50.998;6.250;2022-07-23T14:49:06;2.40;;;1.93;;
16665;SDS011;8446;50.998;6.250;2022-07-23T14:51:33;2.37;;;2.17;;
16665;SDS011;8446;50.998;6.250;2022-07-23T14:54:01;4.37;;;1.97;;
16665;SDS011;8446;50.998;6.250;2022-07-23T14:56:28;2.73;;;2.00;;
16665;SDS011;8446;50.998;6.250;2022-07-23T14:58:55;2.17;;;1.90;;
16665;SDS011;8446;50.998;6.250;2022-07-23T15:01:23;3.00;;;2.13;;
16665;SDS011;8446;50.998;6.250;2022-07-23T15:03:49;3.53;;;2.00;;
16665;SDS011;8446;50.998;6.250;2022-07-23T15:06:17;3.40;;;2.07;;
16665;SDS011;8446;50.998;6.250;2022-07-23T15:08:44;2.60;;;2.30;;
16665;SDS011;8446;50.998;6.250;2022-07-23T15:11:11;4.97;;;1.97;;
16665;SDS011;8446;50.998;6.250;2022-07-23T15:13:38;2.07;;;1.97;;